Time;durP1;ratioP1;P1;durP2;ratioP2;P2;SDS_P1;SDS_P2;PMS_P1;PMS_P2;Temp;Humidity;BMP_temperature;BMP_pressure;BME280_temperature;BME280_humidity;BME280_pressure;Samples;Min_cycle;Max_cycle;Signal;HPM_P1;HPM_P2
2023/03/20 00:00:30;;;;;;;;;;;;;;;24.36;45.23;97233.25;594946;238;67394;-68
2023/03/20 00:02:58;;;;;;;;;;;;;;;24.36;44.33;97233.25;594631;238;64910;-68
2023/03/20 00:05:27;;;;;;;;;;;;;;;24.36;47.63;97230.57;591009;238;65048;-68
2023/03/20 00:07:54;;;;;;;;;;;;;;;24.36;46.81;97224.38;594305;238;65097;-68
2023/03/20 00:10:23;;;;;;;;;;;;;;;24.35;47.40;97234.33;594465;238;64794;-68
2023/03/20 00:12:51;;;;;;;;;;;;;;;24.35;45.25;97220.10;594513;238;65683;-68
2023/03/20 00:15:20;;;;;;;;;;;;;;;24.34;43.87;97226.57;594727;238;66882;-68
2023/03/20 00:17:47;;;;;;;;;;;;;;;24.34;44.25;97221.99;592387;238;66852;-68
2023/03/20 00:20:16;;;;;;;;;;;;;;;24.35;44.79;97220.10;594860;238;65065;-62
2023/03/20 00:22:43;;;;;;;;;;;;;;;24.34;44.87;97221.20;594932;238;67282;-62
2023/03/20 00:25:15;;;;;;;;;;;;;;;24.32;46.01;97217.99;594932;238;66883;-62
2023/03/20 00:27:43;;;;;;;;;;;;;;;24.32;45.83;97217.99;595015;238;63030;-62
2023/03/20 00:30:18;;;;;;;;;;;;;;;24.32;48.13;97212.63;594922;238;64734;-62
2023/03/20 00:32:46;;;;;;;;;;;;;;;24.31;44.96;97213.72;595054;238;66839;-62
2023/03/20 00:35:21;;;;;;;;;;;;;;;24.30;46.23;97210.21;594888;238;64913;-61
2023/03/20 00:37:50;;;;;;;;;;;;;;;24.30;44.99;97215.58;588857;239;67217;-67
2023/03/20 00:40:17;;;;;;;;;;;;;;;24.30;43.87;97206.73;589059;241;66884;-67
2023/03/20 00:42:47;;;;;;;;;;;;;;;24.30;49.72;97199.47;589017;241;64845;-67
2023/03/20 00:45:16;;;;;;;;;;;;;;;24.29;46.66;97197.09;589586;239;67928;-68
2023/03/20 00:47:45;;;;;;;;;;;;;;;24.28;44.68;97198.16;583879;241;70425;-68
2023/03/20 00:50:17;;;;;;;;;;;;;;;24.28;46.13;97198.98;588954;241;64917;-68
2023/03/20 00:52:44;;;;;;;;;;;;;;;24.28;45.24;97195.47;588775;240;67193;-68
2023/03/20 00:55:12;;;;;;;;;;;;;;;24.28;47.29;97200.84;589371;239;67265;-68
2023/03/20 00:57:41;;;;;;;;;;;;;;;24.27;48.43;97197.36;589044;241;64876;-68
2023/03/20 01:00:11;;;;;;;;;;;;;;;24.26;44.96;97192.30;588942;241;68196;-68
2023/03/20 01:02:38;;;;;;;;;;;;;;;24.26;45.36;97193.09;588372;241;66801;-67
2023/03/20 01:05:07;;;;;;;;;;;;;;;24.26;45.65;97193.09;589370;239;65260;-67
2023/03/20 01:07:34;;;;;;;;;;;;;;;24.25;45.31;97196.05;589360;239;67251;-68
2023/03/20 01:10:03;;;;;;;;;;;;;;;24.24;44.79;97195.25;589089;239;66119;-67
2023/03/20 01:12:30;;;;;;;;;;;;;;;24.25;45.75;97190.67;589073;239;63100;-62
2023/03/20 01:14:58;;;;;;;;;;;;;;;24.24;44.48;97194.46;589030;241;65070;-62
2023/03/20 01:17:28;;;;;;;;;;;;;;;24.24;46.04;97191.77;588658;241;67075;-62
2023/03/20 01:19:56;;;;;;;;;;;;;;;24.22;44.74;97185.88;589419;239;63026;-62
2023/03/20 01:22:24;;;;;;;;;;;;;;;24.23;46.95;97182.13;589067;239;67196;-62
2023/03/20 01:24:52;;;;;;;;;;;;;;;24.20;45.72;97178.13;589027;239;67371;-68
2023/03/20 01:27:20;;;;;;;;;;;;;;;24.19;46.16;97176.52;589261;237;64908;-68
2023/03/20 01:29:47;;;;;;;;;;;;;;;24.19;46.99;97170.35;588926;241;67012;-67
2023/03/20 01:32:16;;;;;;;;;;;;;;;24.19;45.94;97167.67;589113;239;67816;-68
2023/03/20 01:34:46;;;;;;;;;;;;;;;24.19;48.37;97171.14;589209;238;47044;-68
2023/03/20 01:37:15;;;;;;;;;;;;;;;24.18;44.75;97163.39;587244;239;67510;-68
2023/03/20 01:39:43;;;;;;;;;;;;;;;24.18;46.26;97164.19;584545;240;67799;-68
2023/03/20 01:42:13;;;;;;;;;;;;;;;24.17;46.09;97167.94;587798;241;62753;-68
2023/03/20 01:44:41;;;;;;;;;;;;;;;24.15;46.65;97162.88;588560;241;67242;-68
2023/03/20 01:47:13;;;;;;;;;;;;;;;24.15;46.60;97165.56;587569;241;67044;-68
2023/03/20 01:49:59;;;;;;;;;;;;;;;24.15;46.60;97168.25;586461;240;62911;-68
2023/03/20 01:52:27;;;;;;;;;;;;;;;24.15;45.38;97162.88;586910;240;68038;-69
2023/03/20 01:54:54;;;;;;;;;;;;;;;24.13;46.06;97154.30;586785;240;65017;-68
2023/03/20 01:57:23;;;;;;;;;;;;;;;24.14;49.63;97153.23;586636;240;65068;-68
2023/03/20 01:59:53;;;;;;;;;;;;;;;24.13;47.02;97162.36;586617;240;65152;-68
2023/03/20 02:02:24;;;;;;;;;;;;;;;24.11;43.24;97153.78;586784;240;66991;-68
2023/03/20 02:04:54;;;;;;;;;;;;;;;24.12;46.38;97157.29;586777;240;66156;-69
2023/03/20 02:07:23;;;;;;;;;;;;;;;24.10;43.73;97157.56;586627;241;67680;-67
2023/03/20 02:09:53;;;;;;;;;;;;;;;24.10;45.21;97160.25;586134;241;46916;-68
2023/03/20 02:12:22;;;;;;;;;;;;;;;24.11;48.61;97158.36;586502;242;43336;-68
2023/03/20 02:14:51;;;;;;;;;;;;;;;24.10;45.09;97162.94;586711;240;67263;-68
2023/03/20 02:17:27;;;;;;;;;;;;;;;24.09;47.34;97155.98;582433;240;46738;-68
2023/03/20 02:20:03;;;;;;;;;;;;;;;24.08;46.39;97151.67;586532;240;46444;-68
2023/03/20 02:22:44;;;;;;;;;;;;;;;24.07;47.51;97149.30;586183;240;67458;-68
2023/03/20 02:25:23;;;;;;;;;;;;;;;24.07;46.79;97151.98;586107;241;65151;-68
2023/03/20 02:27:52;;;;;;;;;;;;;;;24.06;47.46;97151.19;586474;241;64966;-68
2023/03/20 02:30:38;;;;;;;;;;;;;;;24.05;45.83;97152.25;586188;242;67173;-68
2023/03/20 02:33:20;;;;;;;;;;;;;;;24.06;49.05;97161.10;586601;240;67609;-67
2023/03/20 02:35:55;;;;;;;;;;;;;;;24.04;45.96;97155.24;586358;239;65232;-62
2023/03/20 02:38:24;;;;;;;;;;;;;;;24.03;47.85;97142.89;584172;240;65082;-62
2023/03/20 02:41:00;;;;;;;;;;;;;;;24.03;46.06;97145.57;588960;241;67435;-62
2023/03/20 02:43:29;;;;;;;;;;;;;;;24.03;47.92;97153.62;587576;239;65372;-62
2023/03/20 02:45:58;;;;;;;;;;;;;;;24.01;45.95;97148.56;586599;240;64759;-62
2023/03/20 02:48:27;;;;;;;;;;;;;;;24.01;47.62;97147.73;583553;242;64560;-61
2023/03/20 02:50:59;;;;;;;;;;;;;;;24.00;46.96;97148.84;586822;240;65219;-62
2023/03/20 02:53:30;;;;;;;;;;;;;;;23.99;48.14;97150.73;585285;242;44791;-62
2023/03/20 02:55:59;;;;;;;;;;;;;;;23.98;47.37;97149.14;586080;242;67372;-62
2023/03/20 02:58:28;;;;;;;;;;;;;;;23.98;46.33;97149.14;586377;240;62978;-62
2023/03/20 03:00:57;;;;;;;;;;;;;;;23.99;50.01;97149.94;586495;242;65838;-62
2023/03/20 03:03:37;;;;;;;;;;;;;;;23.98;47.86;97148.31;585417;241;66929;-62
2023/03/20 03:06:07;;;;;;;;;;;;;;;23.96;49.84;97145.94;588824;240;65463;-63
2023/03/20 03:08:36;;;;;;;;;;;;;;;23.96;49.87;97143.25;586628;240;64881;-63
2023/03/20 03:11:07;;;;;;;;;;;;;;;23.95;46.84;97146.20;586744;240;64902;-63
2023/03/20 03:13:49;;;;;;;;;;;;;;;23.94;47.39;97137.36;586681;240;65824;-63
2023/03/20 03:16:18;;;;;;;;;;;;;;;23.93;47.30;97141.94;586396;241;66010;-62
2023/03/20 03:18:46;;;;;;;;;;;;;;;23.92;47.04;97151.05;585814;240;65205;-62
2023/03/20 03:21:15;;;;;;;;;;;;;;;23.92;48.11;97140.32;586665;240;65028;-62
2023/03/20 03:23:47;;;;;;;;;;;;;;;23.92;48.28;97143.00;586679;241;65036;-62
2023/03/20 03:26:19;;;;;;;;;;;;;;;23.91;50.44;97137.94;586655;240;67787;-63
2023/03/20 03:28:48;;;;;;;;;;;;;;;23.91;49.06;97138.73;586571;241;62946;-61
2023/03/20 03:31:14;;;;;;;;;;;;;;;;;;586418;241;65160;-62
2023/03/20 03:33:43;;;;;;;;;;;;;;;23.89;48.70;97132.05;586871;241;64654;-62
2023/03/20 03:36:15;;;;;;;;;;;;;;;23.87;46.26;97137.72;586581;239;65097;-62
2023/03/20 03:38:57;;;;;;;;;;;;;;;23.88;50.23;97130.47;586582;240;67263;-62
2023/03/20 03:41:41;;;;;;;;;;;;;;;23.86;49.43;97125.37;586593;241;67544;-62
2023/03/20 03:44:17;;;;;;;;;;;;;;;23.87;50.78;97132.36;586522;242;63552;-61
2023/03/20 03:46:46;;;;;;;;;;;;;;;23.86;50.28;97132.63;586618;240;68052;-62
2023/03/20 03:49:15;;;;;;;;;;;;;;;23.85;50.91;97126.47;586950;240;67070;-62
2023/03/20 03:51:44;;;;;;;;;;;;;;;23.83;49.74;97125.16;586623;241;64877;-62
2023/03/20 03:54:13;;;;;;;;;;;;;;;23.83;50.13;97125.16;586641;242;67244;-62
2023/03/20 03:56:42;;;;;;;;;;;;;;;23.83;47.68;97135.89;586579;241;65434;-62
2023/03/20 03:59:11;;;;;;;;;;;;;;;23.83;48.46;97127.84;586575;240;65917;-62
2023/03/20 04:01:43;;;;;;;;;;;;;;;23.83;52.07;97125.16;586574;240;66928;-62
2023/03/20 04:04:10;;;;;;;;;;;;;;;23.80;47.22;97121.16;586586;240;64928;-62
2023/03/20 04:06:37;;;;;;;;;;;;;;;23.80;46.95;97125.73;586565;241;62922;-62
2023/03/20 04:09:06;;;;;;;;;;;;;;;23.80;48.04;97126.52;586633;242;67488;-62
2023/03/20 04:11:34;;;;;;;;;;;;;;;23.79;49.38;97126.80;586793;240;67709;-62
2023/03/20 04:14:02;;;;;;;;;;;;;;;23.79;48.19;97134.84;586613;240;65675;-62
2023/03/20 04:16:30;;;;;;;;;;;;;;;23.79;51.02;97124.11;586732;241;67732;-62
2023/03/20 04:18:58;;;;;;;;;;;;;;;23.78;51.13;97135.94;586572;239;66924;-62
2023/03/20 04:21:26;;;;;;;;;;;;;;;23.78;50.14;97144.00;586599;242;65832;-62
2023/03/20 04:23:53;;;;;;;;;;;;;;;23.77;48.04;97137.04;586693;242;64436;-62
2023/03/20 04:26:23;;;;;;;;;;;;;;;23.76;48.57;97135.42;586573;240;66729;-62
2023/03/20 04:28:51;;;;;;;;;;;;;;;23.76;50.24;97143.47;586609;240;65090;-62
2023/03/20 04:31:36;;;;;;;;;;;;;;;23.75;48.84;97142.68;586723;240;37517;-63
2023/03/20 04:34:09;;;;;;;;;;;;;;;23.75;49.68;97144.56;586266;242;48035;-63
2023/03/20 04:36:55;;;;;;;;;;;;;;;23.73;48.32;97138.68;586712;239;40162;-62
2023/03/20 04:39:24;;;;;;;;;;;;;;;23.74;51.05;97137.61;586449;240;43842;-62
2023/03/20 04:41:52;;;;;;;;;;;;;;;23.72;46.68;97142.45;586567;242;64464;-62
2023/03/20 04:44:20;;;;;;;;;;;;;;;23.72;50.64;97135.20;586866;240;63730;-62
2023/03/20 04:46:48;;;;;;;;;;;;;;;23.72;48.45;97134.41;586604;241;67440;-62
2023/03/20 04:49:16;;;;;;;;;;;;;;;23.71;49.72;97144.34;586558;241;64300;-62
2023/03/20 04:51:44;;;;;;;;;;;;;;;23.69;49.53;97135.75;586653;240;63131;-62
2023/03/20 04:54:13;;;;;;;;;;;;;;;23.69;47.49;97141.11;586729;240;44155;-62
2023/03/20 04:56:42;;;;;;;;;;;;;;;23.68;49.82;97143.00;586518;242;67747;-62
2023/03/20 04:59:11;;;;;;;;;;;;;;;23.68;50.88;97145.69;586576;242;42938;-62
2023/03/20 05:01:39;;;;;;;;;;;;;;;23.67;47.69;97144.06;586638;240;67244;-62
2023/03/20 05:04:07;;;;;;;;;;;;;;;23.66;49.19;97147.84;586788;240;67383;-68
2023/03/20 05:06:35;;;;;;;;;;;;;;;23.67;48.42;97151.33;586806;240;65008;-68
2023/03/20 05:09:03;;;;;;;;;;;;;;;23.65;48.07;97148.12;586612;241;66105;-68
2023/03/20 05:11:31;;;;;;;;;;;;;;;23.66;49.71;97147.05;586653;241;66960;-68
2023/03/20 05:14:05;;;;;;;;;;;;;;;23.64;46.87;97149.22;583369;240;44276;-68
2023/03/20 05:16:43;;;;;;;;;;;;;;;23.64;48.95;97141.16;586517;242;45492;-68
2023/03/20 05:19:12;;;;;;;;;;;;;;;23.63;49.18;97144.94;586367;242;45328;-68
2023/03/20 05:21:42;;;;;;;;;;;;;;;23.63;48.52;97148.42;586244;242;45245;-68
2023/03/20 05:24:14;;;;;;;;;;;;;;;23.61;48.42;97150.58;585645;241;48538;-69
2023/03/20 05:26:52;;;;;;;;;;;;;;;23.61;49.41;97147.10;586173;242;44272;-68
2023/03/20 05:29:33;;;;;;;;;;;;;;;23.60;47.97;97146.31;579899;242;45021;-68
2023/03/20 05:32:05;;;;;;;;;;;;;;;23.60;50.49;97146.31;586173;242;48522;-68
2023/03/20 05:34:34;;;;;;;;;;;;;;;23.60;50.25;97142.80;585924;242;46066;-69
2023/03/20 05:37:04;;;;;;;;;;;;;;;23.60;51.68;97146.31;586333;239;46342;-67
2023/03/20 05:39:34;;;;;;;;;;;;;;;23.59;48.82;97152.73;582397;242;46494;-68
2023/03/20 05:42:19;;;;;;;;;;;;;;;23.59;48.90;97155.42;586858;240;37665;-68
2023/03/20 05:44:52;;;;;;;;;;;;;;;23.60;46.57;97158.90;578279;242;45030;-68
2023/03/20 05:47:27;;;;;;;;;;;;;;;23.60;46.72;97157.04;585705;242;48099;-67
2023/03/20 05:49:57;;;;;;;;;;;;;;;23.61;49.37;97161.31;585644;242;46878;-67
2023/03/20 05:52:29;;;;;;;;;;;;;;;23.61;47.24;97150.58;575176;240;46351;-67
2023/03/20 05:55:01;;;;;;;;;;;;;;;23.62;48.51;97152.17;585953;242;46931;-67
2023/03/20 05:57:47;;;;;;;;;;;;;;;23.62;47.97;97149.48;586940;240;38776;-67
2023/03/20 06:00:33;;;;;;;;;;;;;;;23.63;49.18;97153.78;586479;241;41449;-67
2023/03/20 06:03:02;;;;;;;;;;;;;;;23.64;50.60;97155.38;585873;242;49654;-68
2023/03/20 06:05:32;;;;;;;;;;;;;;;23.65;49.54;97150.80;586347;240;48116;-68
2023/03/20 06:08:02;;;;;;;;;;;;;;;23.64;46.90;97141.95;586565;242;64008;-68
2023/03/20 06:10:29;;;;;;;;;;;;;;;23.66;47.69;97153.21;586638;241;65893;-68
2023/03/20 06:12:59;;;;;;;;;;;;;;;23.67;48.41;97148.64;586811;240;67381;-67
2023/03/20 06:15:29;;;;;;;;;;;;;;;23.68;45.33;97145.69;586296;240;65168;-67
2023/03/20 06:17:58;;;;;;;;;;;;;;;23.69;48.29;97149.95;586465;242;45810;-68
2023/03/20 06:20:26;;;;;;;;;;;;;;;23.69;46.67;97152.64;587988;240;67030;-68
2023/03/20 06:22:54;;;;;;;;;;;;;;;23.72;48.32;97153.19;587112;241;65067;-68
2023/03/20 06:25:24;;;;;;;;;;;;;;;23.73;47.31;97152.09;586800;240;65054;-67
2023/03/20 06:27:52;;;;;;;;;;;;;;;23.74;49.58;97151.83;586590;240;64626;-67
2023/03/20 06:30:20;;;;;;;;;;;;;;;23.74;47.23;97151.03;586875;240;66156;-68
2023/03/20 06:32:49;;;;;;;;;;;;;;;23.76;48.24;97146.16;586566;242;66581;-67
2023/03/20 06:35:17;;;;;;;;;;;;;;;23.76;45.85;97138.11;586835;241;67448;-67
2023/03/20 06:37:46;;;;;;;;;;;;;;;23.78;45.40;97142.11;594553;238;65541;-68
2023/03/20 06:40:15;;;;;;;;;;;;;;;23.79;48.06;97140.21;594984;238;46255;-68
2023/03/20 06:42:43;;;;;;;;;;;;;;;23.79;48.46;97142.90;594974;238;67095;-68
2023/03/20 06:45:12;;;;;;;;;;;;;;;23.80;50.35;97134.58;594946;238;62986;-68
2023/03/20 06:47:53;;;;;;;;;;;;;;;23.80;46.81;97131.89;594961;238;44346;-68
2023/03/20 06:50:22;;;;;;;;;;;;;;;23.81;41.94;97136.16;595049;238;67408;-68
2023/03/20 06:52:50;;;;;;;;;;;;;;;23.85;46.52;97131.04;594313;238;65363;-65
2023/03/20 06:55:22;;;;;;;;;;;;;;;23.85;43.13;97131.04;588974;238;46923;-67
2023/03/20 06:57:50;;;;;;;;;;;;;;;23.86;45.32;97130.73;592587;238;66763;-67
2023/03/20 07:00:19;;;;;;;;;;;;;;;23.86;42.49;97140.68;592225;238;62872;-69
2023/03/20 07:02:47;;;;;;;;;;;;;;;23.88;45.66;97135.83;592084;239;65130;-73
2023/03/20 07:05:16;;;;;;;;;;;;;;;23.91;45.35;97135.25;592333;239;64976;-71
2023/03/20 07:07:46;;;;;;;;;;;;;;;23.92;47.69;97134.16;592251;239;65126;-72
2023/03/20 07:10:14;;;;;;;;;;;;;;;23.91;46.14;97128.00;592336;239;66012;-69
2023/03/20 07:12:43;;;;;;;;;;;;;;;23.92;47.29;97136.84;592299;239;45395;-71
2023/03/20 07:15:11;;;;;;;;;;;;;;;23.92;41.98;97131.47;592270;239;62876;-69
2023/03/20 07:17:38;;;;;;;;;;;;;;;23.95;41.78;97133.58;588942;239;65089;-69
2023/03/20 07:20:07;;;;;;;;;;;;;;;23.97;44.01;97130.63;592240;239;66663;-68
2023/03/20 07:22:35;;;;;;;;;;;;;;;23.99;47.25;97139.98;592154;239;63079;-68
2023/03/20 07:25:14;;;;;;;;;;;;;;;24.01;45.70;97145.05;592019;239;49738;-68
2023/03/20 07:27:45;;;;;;;;;;;;;;;24.01;43.35;97129.77;592222;239;65358;-69
2023/03/20 07:30:12;;;;;;;;;;;;;;;24.04;45.55;97137.25;592186;239;63860;-68
2023/03/20 07:32:39;;;;;;;;;;;;;;;24.06;45.86;97142.31;592162;239;65193;-67
2023/03/20 07:35:08;;;;;;;;;;;;;;;24.07;45.62;97141.24;592180;239;67564;-68
2023/03/20 07:37:36;;;;;;;;;;;;;;;24.09;46.98;97133.67;591434;239;62920;-69
2023/03/20 07:40:04;;;;;;;;;;;;;;;24.09;46.25;97134.50;591502;239;67680;-68
2023/03/20 07:42:34;;;;;;;;;;;;;;;24.12;46.45;97139.29;591528;239;67078;-69
2023/03/20 07:45:09;;;;;;;;;;;;;;;24.14;45.88;97137.13;591756;239;42502;-69
2023/03/20 07:47:37;;;;;;;;;;;;;;;24.15;46.77;97136.02;591719;239;67007;-67
2023/03/20 07:50:05;;;;;;;;;;;;;;;24.17;46.73;97135.72;586992;239;65133;-68
2023/03/20 07:52:32;;;;;;;;;;;;;;;24.20;47.04;97139.72;591627;239;65108;-68
2023/03/20 07:55:01;;;;;;;;;;;;;;;24.20;43.04;97132.48;591808;239;64822;-69
2023/03/20 07:57:30;;;;;;;;;;;;;;;24.24;44.01;97124.64;591706;239;68029;-68
2023/03/20 07:59:57;;;;;;;;;;;;;;;24.27;44.65;97134.80;591837;239;65091;-68
2023/03/20 08:02:25;;;;;;;;;;;;;;;24.28;44.98;97133.70;591806;239;67349;-70
2023/03/20 08:04:52;;;;;;;;;;;;;;;24.29;41.24;97129.95;591674;239;67102;-69
2023/03/20 08:07:20;;;;;;;;;;;;;;;24.31;46.22;97133.94;591812;239;62945;-69
2023/03/20 08:09:47;;;;;;;;;;;;;;;24.33;46.52;97133.63;591772;239;65039;-69
2023/03/20 08:12:16;;;;;;;;;;;;;;;24.36;45.06;97135.73;591785;239;66993;-69
2023/03/20 08:14:44;;;;;;;;;;;;;;;24.38;43.41;97137.05;591703;239;62944;-69
2023/03/20 08:17:11;;;;;;;;;;;;;;;24.40;43.08;97135.98;591639;239;65104;-69
2023/03/20 08:19:39;;;;;;;;;;;;;;;24.41;43.13;97130.30;591548;239;64877;-67
2023/03/20 08:22:06;;;;;;;;;;;;;;;24.43;45.79;97130.81;591695;239;65249;-69
2023/03/20 08:24:34;;;;;;;;;;;;;;;24.45;45.21;97122.52;591802;239;67272;-69
2023/03/20 08:27:01;;;;;;;;;;;;;;;24.48;43.26;97119.23;591636;239;67036;-69
2023/03/20 08:29:29;;;;;;;;;;;;;;;24.49;40.97;97118.14;591687;239;65240;-69
2023/03/20 08:31:56;;;;;;;;;;;;;;;24.51;42.80;97124.03;591643;239;67361;-69
2023/03/20 08:34:24;;;;;;;;;;;;;;;24.52;42.61;97123.72;591722;239;66608;-70
2023/03/20 08:36:52;;;;;;;;;;;;;;;24.53;41.59;97119.96;592091;239;65057;-69
2023/03/20 08:39:20;;;;;;;;;;;;;;;24.56;43.48;97126.64;592304;239;64748;-68
2023/03/20 08:41:48;;;;;;;;;;;;;;;24.57;43.59;97125.54;592317;239;66912;-69
2023/03/20 08:44:15;;;;;;;;;;;;;;;24.56;41.77;97122.06;592301;239;63048;-71
2023/03/20 08:46:45;;;;;;;;;;;;;;;24.41;42.54;97098.06;591879;239;66774;-70
2023/03/20 08:49:12;;;;;;;;;;;;;;;24.57;44.81;97120.17;592236;239;67734;-69
2023/03/20 08:51:40;;;;;;;;;;;;;;;24.58;41.18;97130.64;592043;239;65266;-69
2023/03/20 08:54:07;;;;;;;;;;;;;;;24.58;40.22;97114.52;592234;239;67033;-69
2023/03/20 08:56:34;;;;;;;;;;;;;;;24.59;42.63;97121.47;592223;239;64925;-68
2023/03/20 08:59:02;;;;;;;;;;;;;;;24.61;39.67;97115.00;592346;239;62983;-69
2023/03/20 09:01:30;;;;;;;;;;;;;;;24.62;40.82;97108.55;592301;239;66887;-70
2023/03/20 09:03:57;;;;;;;;;;;;;;;24.62;38.26;97108.55;592298;239;66965;-69
2023/03/20 09:06:25;;;;;;;;;;;;;;;24.64;39.18;97099.11;592192;239;66078;-69
2023/03/20 09:08:54;;;;;;;;;;;;;;;24.64;42.74;97106.38;592212;239;67464;-70
2023/03/20 09:11:22;;;;;;;;;;;;;;;24.64;39.83;97101.00;592313;239;67088;-70
2023/03/20 09:13:49;;;;;;;;;;;;;;;24.65;43.19;97092.64;592266;239;65000;-69
2023/03/20 09:16:17;;;;;;;;;;;;;;;24.65;40.08;97091.84;592250;239;67353;-69
2023/03/20 09:18:44;;;;;;;;;;;;;;;24.68;39.57;97099.31;592077;239;64918;-69
2023/03/20 09:21:12;;;;;;;;;;;;;;;24.69;41.46;97090.97;592292;239;63846;-69
2023/03/20 09:23:39;;;;;;;;;;;;;;;24.69;42.41;97085.60;592251;239;67196;-69
2023/03/20 09:26:07;;;;;;;;;;;;;;;24.71;40.38;97085.29;592265;239;67109;-62
2023/03/20 09:28:34;;;;;;;;;;;;;;;24.72;40.43;97084.22;592320;239;66616;-62
2023/03/20 09:31:01;;;;;;;;;;;;;;;24.73;39.23;97080.42;592271;239;66025;-62
2023/03/20 09:33:30;;;;;;;;;;;;;;;24.74;41.77;97082.02;592336;239;64923;-62
2023/03/20 09:35:57;;;;;;;;;;;;;;;24.74;38.57;97068.58;592281;239;65071;-62
2023/03/20 09:38:25;;;;;;;;;;;;;;;24.73;42.18;97070.47;592285;239;67241;-62
2023/03/20 09:40:54;;;;;;;;;;;;;;;24.74;42.68;97065.89;592379;239;67106;-62
2023/03/20 09:43:31;;;;;;;;;;;;;;;24.75;40.46;97070.19;592285;239;65305;-62
2023/03/20 09:46:07;;;;;;;;;;;;;;;24.76;40.03;97066.40;592351;239;67346;-61
2023/03/20 09:48:42;;;;;;;;;;;;;;;24.76;38.92;97061.81;592397;239;66827;-60
2023/03/20 09:51:14;;;;;;;;;;;;;;;24.76;40.32;97058.34;585855;239;63079;-61
2023/03/20 09:53:43;;;;;;;;;;;;;;;24.77;39.78;97062.61;592329;239;68026;-61
2023/03/20 09:56:13;;;;;;;;;;;;;;;24.77;40.39;97063.43;592359;239;65212;-61
2023/03/20 09:58:42;;;;;;;;;;;;;;;24.76;40.16;97051.06;592207;239;65022;-61
2023/03/20 10:01:11;;;;;;;;;;;;;;;24.76;40.98;97056.44;592390;239;64802;-61
2023/03/20 10:03:46;;;;;;;;;;;;;;;24.78;40.48;97061.53;592384;239;67742;-61
2023/03/20 10:06:15;;;;;;;;;;;;;;;24.76;38.86;97051.06;592323;239;65094;-61
2023/03/20 10:08:44;;;;;;;;;;;;;;;24.77;40.27;97049.17;592378;239;66224;-61
2023/03/20 10:11:14;;;;;;;;;;;;;;;24.78;40.64;97048.09;592450;239;67002;-60
2023/03/20 10:13:47;;;;;;;;;;;;;;;24.77;41.48;97047.30;592348;239;63079;-60
2023/03/20 10:16:16;;;;;;;;;;;;;;;24.76;43.94;97045.69;592362;239;67007;-60
2023/03/20 10:18:45;;;;;;;;;;;;;;;24.75;41.52;97044.11;592434;239;68586;-61
2023/03/20 10:21:17;;;;;;;;;;;;;;;24.74;43.70;97037.12;592118;239;42416;-60
2023/03/20 10:23:52;;;;;;;;;;;;;;;24.74;43.33;97039.02;592443;239;67496;-60
2023/03/20 10:26:23;;;;;;;;;;;;;;;24.72;42.70;97033.95;591850;239;66968;-61
2023/03/20 10:28:58;;;;;;;;;;;;;;;24.73;41.92;97035.53;592320;239;63906;-61
2023/03/20 10:31:36;;;;;;;;;;;;;;;24.71;40.80;97032.34;592418;239;67307;-62
2023/03/20 10:34:17;;;;;;;;;;;;;;;24.72;39.08;97022.41;592190;239;67079;-60
2023/03/20 10:36:53;;;;;;;;;;;;;;;24.72;43.98;97022.41;592415;239;65067;-60
2023/03/20 10:39:28;;;;;;;;;;;;;;;24.73;39.25;97013.23;592393;239;67418;-64
2023/03/20 10:41:59;;;;;;;;;;;;;;;24.74;40.53;97014.83;592372;239;64921;-60
2023/03/20 10:44:31;;;;;;;;;;;;;;;24.75;42.62;97003.00;592418;239;63045;-60
2023/03/20 10:47:00;;;;;;;;;;;;;;;24.77;41.25;97003.48;592090;239;65004;-61
2023/03/20 10:49:32;;;;;;;;;;;;;;;24.77;40.66;97006.17;592368;239;67922;-60
2023/03/20 10:52:01;;;;;;;;;;;;;;;24.81;42.00;97009.88;592219;239;62975;-60
2023/03/20 10:54:33;;;;;;;;;;;;;;;24.80;41.44;97003.70;591432;239;65142;-60
2023/03/20 10:57:02;;;;;;;;;;;;;;;24.82;41.74;97000.70;592178;239;65841;-59
2023/03/20 10:59:34;;;;;;;;;;;;;;;24.83;42.92;96993.44;592423;239;63096;-60
2023/03/20 11:02:01;;;;;;;;;;;;;;;24.81;40.54;96989.16;592325;239;67267;-59
2023/03/20 11:04:29;;;;;;;;;;;;;;;24.83;41.71;96988.88;592435;239;64784;-60
2023/03/20 11:07:01;;;;;;;;;;;;;;;24.82;40.98;96973.83;592429;239;65042;-59
2023/03/20 11:09:31;;;;;;;;;;;;;;;24.83;42.38;96978.13;592365;239;64950;-59
2023/03/20 11:12:00;;;;;;;;;;;;;;;24.82;41.15;96973.83;592399;239;67984;-60
2023/03/20 11:14:29;;;;;;;;;;;;;;;24.84;42.70;96968.96;592427;239;65071;-60
2023/03/20 11:16:58;;;;;;;;;;;;;;;24.84;39.71;96960.90;591765;239;67242;-59
2023/03/20 11:19:26;;;;;;;;;;;;;;;24.85;42.13;96954.42;592425;239;67479;-60
2023/03/20 11:21:55;;;;;;;;;;;;;;;24.84;42.46;96950.14;592439;239;65131;-60
2023/03/20 11:24:39;;;;;;;;;;;;;;;24.84;40.95;96955.52;592359;239;67252;-60
2023/03/20 11:27:11;;;;;;;;;;;;;;;24.84;40.71;96950.14;592402;239;65697;-60
2023/03/20 11:29:39;;;;;;;;;;;;;;;24.82;40.65;96949.64;592463;239;65018;-60
2023/03/20 11:32:17;;;;;;;;;;;;;;;24.83;44.11;96936.99;592371;239;64817;-61
2023/03/20 11:34:47;;;;;;;;;;;;;;;24.81;43.60;96932.72;592185;239;67148;-60
2023/03/20 11:37:19;;;;;;;;;;;;;;;24.80;42.96;96933.83;590662;239;63126;-63
2023/03/20 11:39:53;;;;;;;;;;;;;;;24.79;42.41;96926.05;590996;240;66038;-61
2023/03/20 11:42:23;;;;;;;;;;;;;;;24.76;43.79;96926.65;591340;240;67061;-60
2023/03/20 11:44:58;;;;;;;;;;;;;;;24.72;45.45;96926.45;591303;240;65247;-60
2023/03/20 11:47:27;;;;;;;;;;;;;;;24.69;45.04;96912.80;586415;240;67297;-60
2023/03/20 11:49:56;;;;;;;;;;;;;;;24.64;45.89;96919.08;590233;240;65007;-60
2023/03/20 11:52:31;;;;;;;;;;;;;;;24.62;45.08;96918.58;590203;240;63057;-60
2023/03/20 11:55:02;;;;;;;;;;;;;;;24.60;44.35;96918.06;590844;240;67248;-60
2023/03/20 11:57:31;;;;;;;;;;;;;;;24.58;45.11;96912.19;591202;240;66951;-60
2023/03/20 11:59:59;;;;;;;;;;;;;;;24.56;43.63;96912.50;591237;240;65768;-63
2023/03/20 12:02:27;;;;;;;;;;;;;;;24.60;37.46;96918.06;591240;240;67144;-64
2023/03/20 12:04:56;;;;;;;;;;;;;;;24.65;39.04;96914.50;591170;239;67042;-62
2023/03/20 12:07:35;;;;;;;;;;;;;;;24.69;44.58;96915.48;590842;240;44908;-62
2023/03/20 12:10:04;;;;;;;;;;;;;;;24.72;38.52;96921.08;591278;240;67255;-67
2023/03/20 12:12:50;;;;;;;;;;;;;;;24.69;39.93;96915.48;591187;240;65129;-65
2023/03/20 12:15:33;;;;;;;;;;;;;;;24.70;39.94;96912.51;590910;240;65159;-65
2023/03/20 12:18:05;;;;;;;;;;;;;;;24.65;42.05;96909.13;591219;240;67222;-64
2023/03/20 12:20:35;;;;;;;;;;;;;;;24.59;42.32;96909.21;591176;240;64728;-64
2023/03/20 12:23:10;;;;;;;;;;;;;;;24.55;43.11;96908.23;591285;240;65170;-65
2023/03/20 12:25:42;;;;;;;;;;;;;;;24.52;42.88;96902.62;591180;240;67249;-68
2023/03/20 12:28:14;;;;;;;;;;;;;;;24.48;40.77;96905.13;591148;239;65318;-67
2023/03/20 12:30:50;;;;;;;;;;;;;;;24.47;45.04;96900.03;587731;239;63063;-68
2023/03/20 12:33:21;;;;;;;;;;;;;;;24.43;41.10;96899.80;590984;240;65109;-67
2023/03/20 12:35:52;;;;;;;;;;;;;;;24.44;43.53;96911.38;590766;238;67072;-67
2023/03/20 12:38:25;;;;;;;;;;;;;;;24.40;42.13;96903.09;590438;240;65078;-68
2023/03/20 12:40:54;;;;;;;;;;;;;;;24.39;41.71;96890.77;591118;240;67323;-65
2023/03/20 12:43:29;;;;;;;;;;;;;;;24.38;43.60;96900.69;591142;240;66771;-67
2023/03/20 12:46:00;;;;;;;;;;;;;;;24.37;41.15;96892.94;591201;239;65168;-67
2023/03/20 12:48:38;;;;;;;;;;;;;;;24.35;41.14;96895.11;590930;239;64445;-69
2023/03/20 12:51:07;;;;;;;;;;;;;;;24.34;42.41;96891.64;590750;239;66837;-67
2023/03/20 12:53:37;;;;;;;;;;;;;;;24.31;39.66;96886.86;589949;239;63840;-64
2023/03/20 12:56:26;;;;;;;;;;;;;;;24.32;41.19;96895.71;590897;239;67994;-65
2023/03/20 12:59:13;;;;;;;;;;;;;;;24.30;42.14;96895.20;591207;240;66770;-64
2023/03/20 13:01:58;;;;;;;;;;;;;;;24.29;43.41;96897.09;590936;240;63040;-65
2023/03/20 13:04:30;;;;;;;;;;;;;;;24.29;44.20;96890.94;590915;240;67024;-65